UAE65 KMIA-KMIA
Flight info
| Callsign | UAE65 |
|---|---|
| Flight time | 0h 49m |
| Altitude | 11000 |
| Route | GLADZ4 GLADZ SNDBR3 |
| Aircraft | A388/J-SADE2E3FGHIJ3J4J5M1RWXY/L |
Departure
| Time | 2026-05-08 01:43 |
|---|---|
| Airport | Miami International Airport (KMIA) |
Arrival
| Time | 2026-05-08 02:33 |
|---|---|
| Airport | Miami International Airport (KMIA) |
| Time | Latitude | Longitude | Altitude | Speed | Heading |
|---|---|---|---|---|---|
| 2026-05-08 01:28 | 25.79416 | -80.28353 | 20 ft | 0 kts | 323° |
| 2026-05-08 01:34 | 25.79403 | -80.28342 | 20 ft | 2 kts | 322° |
| 2026-05-08 01:35 | 25.79390 | -80.28330 | 22 ft | 2 kts | 319° |
| 2026-05-08 01:35 | 25.79378 | -80.28318 | 24 ft | 2 kts | 315° |
| 2026-05-08 01:35 | 25.79367 | -80.28304 | 23 ft | 2 kts | 309° |
| 2026-05-08 01:35 | 25.79358 | -80.28289 | 24 ft | 2 kts | 301° |
| 2026-05-08 01:36 | 25.79353 | -80.28272 | 25 ft | 2 kts | 286° |
| 2026-05-08 01:36 | 25.79353 | -80.28254 | 25 ft | 2 kts | 259° |
| 2026-05-08 01:36 | 25.79356 | -80.28247 | 25 ft | 0 kts | 246° |
| 2026-05-08 01:37 | 25.79353 | -80.28256 | 25 ft | 4 kts | 247° |
| 2026-05-08 01:37 | 25.79338 | -80.28309 | 24 ft | 10 kts | 261° |
| 2026-05-08 01:37 | 25.79330 | -80.28402 | 24 ft | 14 kts | 265° |
| 2026-05-08 01:38 | 25.79317 | -80.28528 | 22 ft | 18 kts | 253° |
| 2026-05-08 01:38 | 25.79265 | -80.28629 | 21 ft | 14 kts | 259° |
| 2026-05-08 01:38 | 25.79281 | -80.28720 | 24 ft | 11 kts | 299° |
| 2026-05-08 01:38 | 25.79319 | -80.28792 | 19 ft | 13 kts | 300° |
| 2026-05-08 01:39 | 25.79372 | -80.28894 | 22 ft | 14 kts | 299° |
| 2026-05-08 01:39 | 25.79416 | -80.28980 | 20 ft | 11 kts | 299° |
| 2026-05-08 01:39 | 25.79464 | -80.29076 | 21 ft | 17 kts | 299° |
| 2026-05-08 01:39 | 25.79522 | -80.29189 | 22 ft | 14 kts | 299° |
| 2026-05-08 01:40 | 25.79571 | -80.29286 | 25 ft | 11 kts | 299° |
| 2026-05-08 01:40 | 25.79615 | -80.29372 | 21 ft | 9 kts | 299° |
| 2026-05-08 01:40 | 25.79654 | -80.29450 | 22 ft | 15 kts | 299° |
| 2026-05-08 01:40 | 25.79705 | -80.29549 | 24 ft | 13 kts | 300° |
| 2026-05-08 01:41 | 25.79760 | -80.29657 | 24 ft | 19 kts | 300° |
| 2026-05-08 01:41 | 25.79823 | -80.29779 | 20 ft | 13 kts | 300° |
| 2026-05-08 01:41 | 25.79879 | -80.29887 | 23 ft | 18 kts | 300° |
| 2026-05-08 01:41 | 25.79948 | -80.30022 | 23 ft | 22 kts | 300° |
| 2026-05-08 01:42 | 25.80041 | -80.30111 | 22 ft | 14 kts | 10° |
| 2026-05-08 01:42 | 25.80076 | -80.30064 | 20 ft | 6 kts | 87° |
| 2026-05-08 01:42 | 25.80076 | -80.30056 | 22 ft | 0 kts | 88° |
| 2026-05-08 01:42 | 25.80080 | -80.29937 | 21 ft | 52 kts | 88° |
| 2026-05-08 01:43 | 25.80108 | -80.29223 | 22 ft | 127 kts | 86° |
| 2026-05-08 01:43 | 25.80158 | -80.28060 | 113 ft | 165 kts | 88° |
| 2026-05-08 01:43 | 25.80226 | -80.26800 | 715 ft | 163 kts | 89° |
| 2026-05-08 01:43 | 25.80288 | -80.25523 | 1235 ft | 170 kts | 90° |
| 2026-05-08 01:44 | 25.80344 | -80.24197 | 1787 ft | 174 kts | 90° |
| 2026-05-08 01:44 | 25.80396 | -80.22850 | 2376 ft | 175 kts | 88° |
| 2026-05-08 01:44 | 25.80443 | -80.21490 | 3075 ft | 175 kts | 87° |
| 2026-05-08 01:44 | 25.80494 | -80.20137 | 3750 ft | 181 kts | 86° |
| 2026-05-08 01:45 | 25.80558 | -80.18690 | 4188 ft | 195 kts | 82° |
| 2026-05-08 01:45 | 25.81045 | -80.17232 | 4465 ft | 215 kts | 50° |
| 2026-05-08 01:45 | 25.82251 | -80.16179 | 4957 ft | 232 kts | 21° |
| 2026-05-08 01:45 | 25.83849 | -80.15893 | 5722 ft | 235 kts | 359° |
| 2026-05-08 01:46 | 25.85519 | -80.15888 | 6486 ft | 246 kts | 1° |
| 2026-05-08 01:46 | 25.87225 | -80.15836 | 7257 ft | 249 kts | 2° |
| 2026-05-08 01:46 | 25.88963 | -80.15813 | 8094 ft | 252 kts | 356° |
| 2026-05-08 01:46 | 25.90700 | -80.16146 | 8882 ft | 256 kts | 344° |
| 2026-05-08 01:47 | 25.92406 | -80.16767 | 9690 ft | 260 kts | 342° |
| 2026-05-08 01:47 | 25.94159 | -80.17390 | 10387 ft | 266 kts | 342° |
| 2026-05-08 01:47 | 25.95937 | -80.18011 | 10872 ft | 269 kts | 341° |
| 2026-05-08 01:48 | 25.98748 | -80.20554 | 11003 ft | 266 kts | 296° |
| 2026-05-08 01:48 | 25.99282 | -80.22501 | 11003 ft | 263 kts | 275° |
| 2026-05-08 01:48 | 25.99469 | -80.24528 | 11001 ft | 264 kts | 276° |
| 2026-05-08 01:48 | 25.99692 | -80.26558 | 11000 ft | 264 kts | 276° |
| 2026-05-08 01:49 | 25.99776 | -80.28596 | 11000 ft | 264 kts | 269° |
| 2026-05-08 01:49 | 25.99762 | -80.30641 | 10999 ft | 265 kts | 269° |
| 2026-05-08 01:49 | 25.99762 | -80.32688 | 11001 ft | 263 kts | 269° |
| 2026-05-08 01:49 | 25.99763 | -80.34699 | 11000 ft | 264 kts | 269° |
| 2026-05-08 01:50 | 25.99763 | -80.36740 | 11000 ft | 264 kts | 269° |
| 2026-05-08 01:50 | 25.99763 | -80.38774 | 11000 ft | 263 kts | 269° |
| 2026-05-08 01:50 | 25.99761 | -80.40810 | 11001 ft | 263 kts | 269° |
| 2026-05-08 01:50 | 25.99500 | -80.42808 | 11001 ft | 263 kts | 250° |
| 2026-05-08 01:51 | 25.98590 | -80.44561 | 11004 ft | 263 kts | 231° |
| 2026-05-08 01:51 | 25.97429 | -80.46133 | 10998 ft | 263 kts | 231° |
| 2026-05-08 01:51 | 25.96294 | -80.47721 | 11000 ft | 262 kts | 232° |
| 2026-05-08 01:51 | 25.95170 | -80.49317 | 11002 ft | 262 kts | 232° |
| 2026-05-08 01:52 | 25.94044 | -80.50918 | 10998 ft | 264 kts | 232° |
| 2026-05-08 01:52 | 25.92906 | -80.52536 | 10997 ft | 267 kts | 231° |
| 2026-05-08 01:52 | 25.91760 | -80.54159 | 11002 ft | 267 kts | 231° |
| 2026-05-08 01:52 | 25.90621 | -80.55773 | 10998 ft | 265 kts | 231° |
| 2026-05-08 01:53 | 25.89483 | -80.57381 | 11000 ft | 265 kts | 231° |
| 2026-05-08 01:53 | 25.88344 | -80.58991 | 10999 ft | 265 kts | 231° |
| 2026-05-08 01:53 | 25.87207 | -80.60598 | 10999 ft | 265 kts | 231° |
| 2026-05-08 01:53 | 25.86071 | -80.62203 | 11001 ft | 265 kts | 231° |
| 2026-05-08 01:54 | 25.84932 | -80.63811 | 11003 ft | 265 kts | 231° |
| 2026-05-08 01:54 | 25.83792 | -80.65420 | 11002 ft | 265 kts | 231° |
| 2026-05-08 01:54 | 25.82652 | -80.67029 | 10996 ft | 265 kts | 231° |
| 2026-05-08 01:54 | 25.81517 | -80.68631 | 10997 ft | 264 kts | 231° |
| 2026-05-08 01:55 | 25.80377 | -80.70239 | 10995 ft | 265 kts | 231° |
| 2026-05-08 01:55 | 25.79241 | -80.71852 | 10997 ft | 265 kts | 233° |
| 2026-05-08 01:55 | 25.78325 | -80.73621 | 10997 ft | 265 kts | 246° |
| 2026-05-08 01:55 | 25.77749 | -80.75566 | 10998 ft | 265 kts | 253° |
| 2026-05-08 01:56 | 25.77241 | -80.77540 | 10996 ft | 266 kts | 253° |
| 2026-05-08 01:56 | 25.76718 | -80.79479 | 10997 ft | 266 kts | 252° |
| 2026-05-08 01:56 | 25.76180 | -80.81444 | 10997 ft | 266 kts | 252° |
| 2026-05-08 01:56 | 25.75643 | -80.83406 | 10999 ft | 266 kts | 252° |
| 2026-05-08 01:57 | 25.75108 | -80.85364 | 10996 ft | 265 kts | 252° |
| 2026-05-08 01:57 | 25.74572 | -80.87322 | 10996 ft | 266 kts | 252° |
| 2026-05-08 01:57 | 25.74037 | -80.89284 | 10997 ft | 266 kts | 252° |
| 2026-05-08 01:57 | 25.73500 | -80.91249 | 10996 ft | 266 kts | 252° |
| 2026-05-08 01:58 | 25.72965 | -80.93211 | 10995 ft | 266 kts | 252° |
| 2026-05-08 01:58 | 25.72430 | -80.95169 | 10998 ft | 265 kts | 252° |
| 2026-05-08 01:58 | 25.71895 | -80.97127 | 11000 ft | 265 kts | 252° |
| 2026-05-08 01:58 | 25.71323 | -80.99070 | 10993 ft | 264 kts | 243° |
| 2026-05-08 01:59 | 25.70204 | -81.00656 | 11000 ft | 263 kts | 217° |
| 2026-05-08 01:59 | 25.69171 | -81.01356 | 10997 ft | 263 kts | 205° |
| 2026-05-08 01:59 | 25.67503 | -81.02172 | 11001 ft | 262 kts | 203° |
| 2026-05-08 01:59 | 25.65836 | -81.02996 | 11007 ft | 264 kts | 203° |
| 2026-05-08 02:00 | 25.64158 | -81.03831 | 11001 ft | 265 kts | 203° |
| 2026-05-08 02:00 | 25.62474 | -81.04666 | 10998 ft | 264 kts | 203° |
| 2026-05-08 02:00 | 25.60805 | -81.05501 | 11000 ft | 264 kts | 203° |
| 2026-05-08 02:00 | 25.59130 | -81.06340 | 11006 ft | 264 kts | 203° |
| 2026-05-08 02:01 | 25.57456 | -81.07176 | 11003 ft | 265 kts | 203° |
| 2026-05-08 02:01 | 25.55775 | -81.08011 | 11020 ft | 264 kts | 203° |
| 2026-05-08 02:01 | 25.54105 | -81.08847 | 11005 ft | 263 kts | 204° |
| 2026-05-08 02:01 | 25.52431 | -81.09684 | 11006 ft | 264 kts | 203° |
| 2026-05-08 02:02 | 25.50751 | -81.10519 | 11000 ft | 265 kts | 203° |
| 2026-05-08 02:02 | 25.49074 | -81.11355 | 11004 ft | 265 kts | 203° |
| 2026-05-08 02:02 | 25.47402 | -81.12196 | 11008 ft | 264 kts | 203° |
| 2026-05-08 02:02 | 25.45724 | -81.13034 | 11009 ft | 265 kts | 203° |
| 2026-05-08 02:03 | 25.44046 | -81.13866 | 11008 ft | 264 kts | 203° |
| 2026-05-08 02:03 | 25.42370 | -81.14696 | 11004 ft | 263 kts | 200° |
| 2026-05-08 02:03 | 25.40582 | -81.15008 | 11016 ft | 262 kts | 173° |
| 2026-05-08 02:03 | 25.38873 | -81.14360 | 11009 ft | 263 kts | 146° |
| 2026-05-08 02:04 | 25.37619 | -81.12906 | 11020 ft | 264 kts | 124° |
| 2026-05-08 02:04 | 25.36625 | -81.11209 | 11009 ft | 261 kts | 121° |
| 2026-05-08 02:04 | 25.35799 | -81.09429 | 11025 ft | 261 kts | 114° |
| 2026-05-08 02:04 | 25.35087 | -81.07582 | 11022 ft | 261 kts | 113° |
| 2026-05-08 02:05 | 25.34377 | -81.05738 | 11024 ft | 260 kts | 113° |
| 2026-05-08 02:05 | 25.33667 | -81.03896 | 11016 ft | 262 kts | 113° |
| 2026-05-08 02:05 | 25.33126 | -81.02011 | 11008 ft | 261 kts | 96° |
| 2026-05-08 02:05 | 25.33334 | -81.00021 | 11008 ft | 264 kts | 71° |
| 2026-05-08 02:06 | 25.34028 | -80.98140 | 11010 ft | 264 kts | 68° |
| 2026-05-08 02:06 | 25.34755 | -80.96276 | 11007 ft | 264 kts | 68° |
| 2026-05-08 02:06 | 25.35485 | -80.94413 | 11011 ft | 264 kts | 68° |
| 2026-05-08 02:06 | 25.36215 | -80.92548 | 11002 ft | 264 kts | 68° |
| 2026-05-08 02:07 | 25.36945 | -80.90673 | 11006 ft | 266 kts | 68° |
| 2026-05-08 02:07 | 25.37674 | -80.88791 | 11009 ft | 266 kts | 68° |
| 2026-05-08 02:07 | 25.38402 | -80.86913 | 11010 ft | 266 kts | 68° |
| 2026-05-08 02:07 | 25.39222 | -80.85081 | 11006 ft | 266 kts | 54° |
| 2026-05-08 02:08 | 25.40607 | -80.83728 | 11004 ft | 269 kts | 28° |
| 2026-05-08 02:08 | 25.42398 | -80.83176 | 11006 ft | 270 kts | 2° |
| 2026-05-08 02:08 | 25.44232 | -80.83535 | 11006 ft | 270 kts | 336° |
| 2026-05-08 02:08 | 25.45754 | -80.84736 | 11004 ft | 271 kts | 310° |
| 2026-05-08 02:09 | 25.46658 | -80.86541 | 11005 ft | 269 kts | 284° |
| 2026-05-08 02:09 | 25.46772 | -80.88585 | 11014 ft | 269 kts | 259° |
| 2026-05-08 02:09 | 25.46088 | -80.90494 | 11020 ft | 268 kts | 233° |
| 2026-05-08 02:09 | 25.44748 | -80.91883 | 11021 ft | 264 kts | 208° |
| 2026-05-08 02:10 | 25.43126 | -80.92842 | 11007 ft | 265 kts | 207° |
| 2026-05-08 02:10 | 25.41511 | -80.93826 | 11018 ft | 264 kts | 208° |
| 2026-05-08 02:10 | 25.39909 | -80.94819 | 11018 ft | 264 kts | 208° |
| 2026-05-08 02:10 | 25.38327 | -80.95798 | 11008 ft | 264 kts | 208° |
| 2026-05-08 02:11 | 25.36715 | -80.96790 | 11002 ft | 265 kts | 208° |
| 2026-05-08 02:11 | 25.35106 | -80.97779 | 11016 ft | 265 kts | 207° |
| 2026-05-08 02:11 | 25.33488 | -80.98772 | 11019 ft | 266 kts | 208° |
| 2026-05-08 02:11 | 25.31832 | -80.99672 | 11004 ft | 265 kts | 194° |
| 2026-05-08 02:12 | 25.30016 | -80.99786 | 11007 ft | 262 kts | 167° |
| 2026-05-08 02:12 | 25.28380 | -80.98954 | 11009 ft | 262 kts | 139° |
| 2026-05-08 02:12 | 25.27290 | -80.97366 | 11007 ft | 262 kts | 112° |
| 2026-05-08 02:12 | 25.26998 | -80.95399 | 11006 ft | 263 kts | 85° |
| 2026-05-08 02:13 | 25.27555 | -80.93480 | 11007 ft | 265 kts | 58° |
| 2026-05-08 02:13 | 25.28850 | -80.92045 | 11004 ft | 268 kts | 31° |
| 2026-05-08 02:13 | 25.30497 | -80.91071 | 11006 ft | 268 kts | 29° |
| 2026-05-08 02:13 | 25.32132 | -80.90091 | 11005 ft | 266 kts | 30° |
| 2026-05-08 02:14 | 25.33728 | -80.89114 | 11011 ft | 266 kts | 30° |
| 2026-05-08 02:14 | 25.35364 | -80.88107 | 11006 ft | 266 kts | 30° |
| 2026-05-08 02:14 | 25.36962 | -80.87124 | 11008 ft | 267 kts | 30° |
| 2026-05-08 02:14 | 25.38589 | -80.86123 | 11007 ft | 268 kts | 30° |
| 2026-05-08 02:15 | 25.40291 | -80.85288 | 11004 ft | 269 kts | 12° |
| 2026-05-08 02:15 | 25.42148 | -80.85319 | 11006 ft | 270 kts | 344° |
| 2026-05-08 02:15 | 25.43797 | -80.86290 | 11003 ft | 272 kts | 317° |
| 2026-05-08 02:15 | 25.44876 | -80.88014 | 11002 ft | 271 kts | 289° |
| 2026-05-08 02:16 | 25.45115 | -80.90054 | 11010 ft | 269 kts | 262° |
| 2026-05-08 02:16 | 25.44497 | -80.91954 | 11018 ft | 267 kts | 234° |
| 2026-05-08 02:16 | 25.43153 | -80.93333 | 11018 ft | 265 kts | 207° |
| 2026-05-08 02:16 | 25.41455 | -80.94118 | 11003 ft | 265 kts | 202° |
| 2026-05-08 02:17 | 25.39782 | -80.94966 | 11006 ft | 264 kts | 205° |
| 2026-05-08 02:17 | 25.38153 | -80.95903 | 11014 ft | 264 kts | 207° |
| 2026-05-08 02:17 | 25.36540 | -80.96881 | 11013 ft | 265 kts | 208° |
| 2026-05-08 02:17 | 25.34923 | -80.97877 | 11016 ft | 266 kts | 208° |
| 2026-05-08 02:18 | 25.33308 | -80.98875 | 11015 ft | 266 kts | 207° |
| 2026-05-08 02:18 | 25.31636 | -80.99730 | 11016 ft | 264 kts | 191° |
| 2026-05-08 02:18 | 25.29820 | -80.99739 | 11019 ft | 263 kts | 164° |
| 2026-05-08 02:18 | 25.28219 | -80.98812 | 11024 ft | 261 kts | 136° |
| 2026-05-08 02:19 | 25.27211 | -80.97170 | 11018 ft | 261 kts | 109° |
| 2026-05-08 02:19 | 25.27013 | -80.95184 | 11015 ft | 264 kts | 82° |
| 2026-05-08 02:19 | 25.27659 | -80.93300 | 11026 ft | 265 kts | 56° |
| 2026-05-08 02:19 | 25.29021 | -80.91937 | 11027 ft | 267 kts | 30° |
| 2026-05-08 02:20 | 25.30648 | -80.90981 | 11007 ft | 268 kts | 29° |
| 2026-05-08 02:20 | 25.32301 | -80.89985 | 11020 ft | 266 kts | 31° |
| 2026-05-08 02:20 | 25.33851 | -80.88924 | 11009 ft | 265 kts | 34° |
| 2026-05-08 02:20 | 25.35429 | -80.87859 | 11008 ft | 266 kts | 31° |
| 2026-05-08 02:21 | 25.37067 | -80.86901 | 11007 ft | 267 kts | 27° |
| 2026-05-08 02:21 | 25.38742 | -80.85992 | 11006 ft | 269 kts | 26° |
| 2026-05-08 02:21 | 25.40481 | -80.85241 | 11007 ft | 268 kts | 18° |
| 2026-05-08 02:21 | 25.42238 | -80.84539 | 11011 ft | 269 kts | 23° |
| 2026-05-08 02:22 | 25.43960 | -80.83719 | 11018 ft | 269 kts | 24° |
| 2026-05-08 02:22 | 25.45682 | -80.82929 | 11008 ft | 268 kts | 20° |
| 2026-05-08 02:22 | 25.47449 | -80.82245 | 11009 ft | 269 kts | 20° |
| 2026-05-08 02:22 | 25.49218 | -80.81565 | 11004 ft | 269 kts | 19° |
| 2026-05-08 02:23 | 25.50983 | -80.80894 | 10985 ft | 268 kts | 20° |
| 2026-05-08 02:23 | 25.52753 | -80.80224 | 10822 ft | 270 kts | 19° |
| 2026-05-08 02:23 | 25.54540 | -80.79549 | 10560 ft | 271 kts | 19° |
| 2026-05-08 02:23 | 25.56350 | -80.78866 | 10064 ft | 279 kts | 20° |
| 2026-05-08 02:24 | 25.58216 | -80.78161 | 9306 ft | 288 kts | 19° |
| 2026-05-08 02:24 | 25.60121 | -80.77440 | 8697 ft | 289 kts | 19° |
| 2026-05-08 02:24 | 25.62013 | -80.76725 | 8158 ft | 286 kts | 19° |
| 2026-05-08 02:24 | 25.63857 | -80.75942 | 7593 ft | 284 kts | 29° |
| 2026-05-08 02:25 | 25.65392 | -80.74650 | 7106 ft | 281 kts | 47° |
| 2026-05-08 02:25 | 25.66584 | -80.72936 | 6539 ft | 282 kts | 53° |
| 2026-05-08 02:25 | 25.67746 | -80.71200 | 6096 ft | 278 kts | 52° |
| 2026-05-08 02:25 | 25.68902 | -80.69511 | 5675 ft | 273 kts | 52° |
| 2026-05-08 02:26 | 25.70045 | -80.67849 | 5222 ft | 269 kts | 52° |
| 2026-05-08 02:26 | 25.71171 | -80.66212 | 4817 ft | 265 kts | 52° |
| 2026-05-08 02:26 | 25.72273 | -80.64598 | 4357 ft | 261 kts | 53° |
| 2026-05-08 02:26 | 25.73354 | -80.63005 | 4088 ft | 253 kts | 53° |
| 2026-05-08 02:27 | 25.74388 | -80.61480 | 4007 ft | 242 kts | 53° |
| 2026-05-08 02:27 | 25.75377 | -80.60024 | 3996 ft | 229 kts | 53° |
| 2026-05-08 02:27 | 25.76312 | -80.58651 | 3998 ft | 217 kts | 53° |
| 2026-05-08 02:27 | 25.77136 | -80.57325 | 3989 ft | 202 kts | 63° |
| 2026-05-08 02:28 | 25.77546 | -80.55922 | 4003 ft | 188 kts | 79° |
| 2026-05-08 02:28 | 25.77682 | -80.54456 | 3959 ft | 193 kts | 86° |
| 2026-05-08 02:28 | 25.77728 | -80.52970 | 3736 ft | 195 kts | 86° |
| 2026-05-08 02:28 | 25.77793 | -80.51456 | 3480 ft | 197 kts | 85° |
| 2026-05-08 02:29 | 25.77856 | -80.49940 | 3215 ft | 197 kts | 86° |
| 2026-05-08 02:29 | 25.77918 | -80.48421 | 2954 ft | 197 kts | 86° |
| 2026-05-08 02:29 | 25.77980 | -80.46908 | 2701 ft | 197 kts | 87° |
| 2026-05-08 02:29 | 25.78042 | -80.45391 | 2444 ft | 196 kts | 88° |
| 2026-05-08 02:30 | 25.78104 | -80.43885 | 2194 ft | 196 kts | 88° |
| 2026-05-08 02:30 | 25.78166 | -80.42375 | 1926 ft | 191 kts | 88° |
| 2026-05-08 02:30 | 25.78225 | -80.40957 | 1709 ft | 176 kts | 88° |
| 2026-05-08 02:30 | 25.78284 | -80.39629 | 1462 ft | 169 kts | 89° |
| 2026-05-08 02:31 | 25.78332 | -80.38341 | 1258 ft | 163 kts | 89° |
| 2026-05-08 02:31 | 25.78382 | -80.37117 | 1049 ft | 157 kts | 89° |
| 2026-05-08 02:31 | 25.78430 | -80.35913 | 870 ft | 156 kts | 89° |
| 2026-05-08 02:31 | 25.78480 | -80.34734 | 683 ft | 150 kts | 90° |
| 2026-05-08 02:32 | 25.78525 | -80.33587 | 496 ft | 148 kts | 89° |
| 2026-05-08 02:32 | 25.78574 | -80.32454 | 287 ft | 147 kts | 89° |
| 2026-05-08 02:32 | 25.78619 | -80.31334 | 66 ft | 144 kts | 89° |
| 2026-05-08 02:32 | 25.78657 | -80.30284 | 21 ft | 115 kts | 88° |
| 2026-05-08 02:33 | 25.78687 | -80.29603 | 21 ft | 61 kts | 86° |
| 2026-05-08 02:33 | 25.78717 | -80.29293 | 23 ft | 26 kts | 73° |
| 2026-05-08 02:33 | 25.78802 | -80.29141 | 21 ft | 20 kts | 63° |
| 2026-05-08 02:33 | 25.78823 | -80.29059 | 23 ft | 9 kts | 79° |
| 2026-05-08 02:34 | 25.78837 | -80.28977 | 21 ft | 12 kts | 79° |
| 2026-05-08 02:34 | 25.78857 | -80.28872 | 23 ft | 15 kts | 79° |
| 2026-05-08 02:34 | 25.78867 | -80.28746 | 19 ft | 17 kts | 88° |
| 2026-05-08 02:34 | 25.78887 | -80.28623 | 22 ft | 10 kts | 53° |
| 2026-05-08 02:35 | 25.78931 | -80.28582 | 22 ft | 6 kts | 35° |
| 2026-05-08 02:35 | 25.78937 | -80.28577 | 21 ft | 0 kts | 35° |